createdAt,value
2018-06-23T00:00:12.117Z,67.08
2018-06-23T00:02:40.481Z,65.84
2018-06-23T00:05:08.869Z,65.93
2018-06-23T00:07:37.247Z,65.90
2018-06-23T00:10:05.707Z,65.65
2018-06-23T00:12:34.065Z,65.82
2018-06-23T00:15:02.461Z,64.97
2018-06-23T00:17:30.833Z,64.89
2018-06-23T00:19:59.218Z,64.31
2018-06-23T00:22:27.603Z,65.12
2018-06-23T00:24:56.018Z,64.74
2018-06-23T00:27:24.377Z,65.04
2018-06-23T00:29:52.794Z,64.18
2018-06-23T00:32:21.167Z,64.44
2018-06-23T00:34:49.555Z,64.22
2018-06-23T00:37:17.957Z,63.65
2018-06-23T00:39:46.322Z,63.62
2018-06-23T00:42:14.708Z,63.38
2018-06-23T00:44:43.081Z,63.33
2018-06-23T00:47:11.487Z,63.27
2018-06-23T00:49:39.853Z,63.08
2018-06-23T00:52:08.242Z,63.33
2018-06-23T00:54:36.608Z,63.08
2018-06-23T00:57:06.010Z,62.78
2018-06-23T00:59:42.550Z,62.90
2018-06-23T01:02:11.222Z,62.42
2018-06-23T01:04:39.618Z,62.88
2018-06-23T01:07:09.215Z,62.52
2018-06-23T01:09:37.868Z,62.42
2018-06-23T01:12:06.889Z,63.09
2018-06-23T01:14:35.654Z,63.25
2018-06-23T01:17:04.220Z,62.32
2018-06-23T01:19:32.585Z,63.42
2018-06-23T01:22:00.979Z,62.82
2018-06-23T01:24:29.359Z,62.41
2018-06-23T01:26:57.776Z,63.04
2018-06-23T01:29:26.181Z,62.58
2018-06-23T01:31:54.590Z,62.99
2018-06-23T01:34:22.971Z,62.41
2018-06-23T01:36:51.706Z,62.39
2018-06-23T01:39:20.078Z,62.54
2018-06-23T01:41:48.480Z,62.00
2018-06-23T01:44:16.870Z,62.35
2018-06-23T01:46:45.303Z,62.56
2018-06-23T01:49:13.674Z,63.16
2018-06-23T01:51:42.074Z,62.02
2018-06-23T01:54:10.450Z,62.62
2018-06-23T01:56:38.865Z,62.77
2018-06-23T01:59:07.230Z,62.49
2018-06-23T02:01:35.606Z,62.15
2018-06-23T02:04:03.999Z,61.99
2018-06-23T02:06:32.365Z,61.92
2018-06-23T02:09:00.758Z,62.21
2018-06-23T02:11:29.175Z,62.64
2018-06-23T02:14:03.002Z,62.80
2018-06-23T02:16:36.647Z,62.37
2018-06-23T02:19:10.516Z,62.95
2018-06-23T02:21:44.329Z,63.45
2018-06-23T02:24:18.122Z,63.06
2018-06-23T02:26:51.790Z,62.42
2018-06-23T02:29:25.510Z,62.52
2018-06-23T02:31:59.202Z,62.61
2018-06-23T02:34:32.917Z,63.09
2018-06-23T02:37:01.289Z,63.27
2018-06-23T02:39:29.703Z,63.25
2018-06-23T02:41:58.085Z,62.96
2018-06-23T02:44:26.485Z,63.43
2018-06-23T02:46:54.854Z,63.13
2018-06-23T02:49:23.252Z,63.06
2018-06-23T02:51:51.631Z,62.89
2018-06-23T02:54:20.026Z,63.12
2018-06-23T02:56:48.402Z,63.42
2018-06-23T02:59:19.121Z,63.09
2018-06-23T03:01:48.138Z,63.08
2018-06-23T03:04:16.907Z,63.70
2018-06-23T03:06:45.301Z,63.17
2018-06-23T03:09:13.754Z,63.90
2018-06-23T03:11:42.133Z,64.15
2018-06-23T03:14:10.526Z,64.23
2018-06-23T03:16:38.986Z,63.88
2018-06-23T03:19:07.611Z,64.40
2018-06-23T03:21:35.992Z,63.55
2018-06-23T03:24:04.370Z,64.32
2018-06-23T03:26:32.766Z,64.29
2018-06-23T03:29:01.138Z,64.55
2018-06-23T03:31:29.534Z,63.64
2018-06-23T03:33:57.916Z,64.44
2018-06-23T03:36:26.314Z,63.83
2018-06-23T03:38:54.697Z,63.95
2018-06-23T03:41:23.099Z,64.88
2018-06-23T03:43:51.503Z,64.42
2018-06-23T03:46:19.914Z,64.67
2018-06-23T03:48:48.295Z,64.70
2018-06-23T03:51:16.694Z,64.66
2018-06-23T03:53:45.066Z,64.14
2018-06-23T03:56:13.475Z,64.68
2018-06-23T03:58:41.854Z,64.73
2018-06-23T04:01:11.036Z,63.96
2018-06-23T04:03:39.414Z,63.88
2018-06-23T04:06:07.818Z,64.47
2018-06-23T04:08:36.278Z,64.92
2018-06-23T04:11:04.886Z,64.96
2018-06-23T04:13:33.759Z,65.11
2018-06-23T04:16:02.257Z,65.14
2018-06-23T04:18:30.633Z,65.41
2018-06-23T04:20:59.029Z,65.11
2018-06-23T04:23:27.406Z,65.31
2018-06-23T04:25:55.806Z,65.96
2018-06-23T04:28:24.174Z,66.33
2018-06-23T04:30:52.652Z,66.27
2018-06-23T04:33:21.021Z,65.78
2018-06-23T04:35:49.413Z,66.44
2018-06-23T04:38:17.781Z,66.54
2018-06-23T04:40:46.187Z,66.25
2018-06-23T04:43:14.562Z,67.26
2018-06-23T04:45:42.935Z,67.41
2018-06-23T04:48:11.329Z,67.95
2018-06-23T04:50:39.707Z,68.16
2018-06-23T04:53:08.107Z,67.51
2018-06-23T04:55:36.483Z,68.24
2018-06-23T04:58:04.887Z,68.15
2018-06-23T05:00:33.368Z,67.41
2018-06-23T05:03:01.687Z,67.14
2018-06-23T05:05:30.079Z,66.35
2018-06-23T05:07:58.482Z,66.34
2018-06-23T05:10:26.886Z,65.27
2018-06-23T05:12:55.289Z,64.59
2018-06-23T05:15:23.733Z,64.18
2018-06-23T05:17:52.129Z,63.68
2018-06-23T05:20:20.648Z,63.22
2018-06-23T05:22:49.033Z,62.41
2018-06-23T05:25:17.407Z,62.37
2018-06-23T05:27:45.803Z,61.34
2018-06-23T05:30:14.174Z,60.99
2018-06-23T05:32:42.578Z,61.03
2018-06-23T05:35:10.945Z,60.85
2018-06-23T05:37:39.399Z,60.51
2018-06-23T05:40:07.757Z,60.89
2018-06-23T05:42:36.167Z,60.22
2018-06-23T05:45:04.592Z,59.37
2018-06-23T05:47:32.990Z,59.88
2018-06-23T05:50:01.368Z,59.08
2018-06-23T05:52:29.765Z,59.56
2018-06-23T05:54:58.143Z,59.65
2018-06-23T05:57:26.550Z,58.58
2018-06-23T05:59:54.926Z,58.16
2018-06-23T06:02:23.349Z,58.04
2018-06-23T06:04:51.719Z,58.85
2018-06-23T06:07:20.094Z,57.91
2018-06-23T06:09:48.539Z,57.69
2018-06-23T06:12:16.931Z,57.43
2018-06-23T06:14:45.338Z,58.24
2018-06-23T06:17:32.178Z,57.58
2018-06-23T06:20:03.755Z,57.24
2018-06-23T06:22:33.216Z,57.78
2018-06-23T06:25:01.615Z,56.73
2018-06-23T06:27:30.019Z,56.32
2018-06-23T06:29:59.009Z,55.92
2018-06-23T06:32:27.883Z,55.00
2018-06-23T06:34:56.306Z,55.87
2018-06-23T06:37:24.678Z,55.47
2018-06-23T06:39:53.082Z,54.67
2018-06-23T06:42:21.478Z,54.25
2018-06-23T06:44:49.882Z,54.82
2018-06-23T06:47:19.186Z,54.58
2018-06-23T06:49:47.801Z,53.58
2018-06-23T06:52:16.191Z,54.42
2018-06-23T06:54:44.952Z,53.40
2018-06-23T06:57:13.363Z,52.54
2018-06-23T06:59:41.776Z,51.77
2018-06-23T07:02:10.157Z,50.18
2018-06-23T07:04:38.550Z,50.18
2018-06-23T07:07:06.935Z,50.76
2018-06-23T07:09:35.350Z,51.13
2018-06-23T07:12:03.718Z,49.66
2018-06-23T07:14:32.105Z,49.73
2018-06-23T07:17:00.473Z,49.72
2018-06-23T07:19:28.876Z,49.94
2018-06-23T07:21:57.255Z,49.68
2018-06-23T07:24:25.663Z,50.32
2018-06-23T07:26:54.038Z,50.23
2018-06-23T07:29:22.460Z,50.45
2018-06-23T07:31:50.850Z,49.16
2018-06-23T07:34:19.289Z,48.74
2018-06-23T07:36:47.649Z,49.71
2018-06-23T07:39:16.022Z,49.06
2018-06-23T07:41:44.423Z,48.47
2018-06-23T07:44:12.810Z,49.14
2018-06-23T07:46:41.237Z,48.62
2018-06-23T07:49:09.595Z,48.19
2018-06-23T07:51:37.986Z,48.63
2018-06-23T07:54:06.350Z,47.27
2018-06-23T07:56:34.746Z,46.69
2018-06-23T07:59:03.157Z,46.44
2018-06-23T08:01:31.568Z,46.67
2018-06-23T08:03:59.968Z,45.63
2018-06-23T08:06:28.370Z,45.59
2018-06-23T08:08:56.734Z,45.66
2018-06-23T08:11:25.145Z,45.71
2018-06-23T08:13:53.514Z,44.83
2018-06-23T08:16:21.934Z,44.70
2018-06-23T08:18:50.297Z,45.79
2018-06-23T08:21:18.694Z,45.69
2018-06-23T08:23:47.070Z,45.84
2018-06-23T08:26:15.508Z,45.50
2018-06-23T08:28:43.875Z,44.36
2018-06-23T08:31:12.270Z,44.59
2018-06-23T08:33:40.644Z,44.92
2018-06-23T08:36:09.058Z,45.42
2018-06-23T08:38:37.431Z,45.64
2018-06-23T08:41:05.903Z,45.42
2018-06-23T08:43:34.283Z,44.31
2018-06-23T08:46:02.691Z,43.96
2018-06-23T08:48:31.083Z,44.53
2018-06-23T08:50:59.469Z,44.29
2018-06-23T08:53:27.840Z,43.84
2018-06-23T08:55:56.243Z,42.79
2018-06-23T08:58:24.620Z,44.02
2018-06-23T09:00:52.996Z,44.68
2018-06-23T09:03:21.390Z,43.97
2018-06-23T09:05:49.770Z,43.48
2018-06-23T09:08:18.162Z,43.60
2018-06-23T09:10:46.568Z,44.67
2018-06-23T09:13:14.960Z,44.08
2018-06-23T09:15:43.338Z,44.13
2018-06-23T09:18:11.726Z,44.35
2018-06-23T09:20:40.103Z,43.46
2018-06-23T09:23:08.501Z,42.75
2018-06-23T09:25:36.952Z,41.43
2018-06-23T09:28:05.431Z,42.00
2018-06-23T09:30:33.828Z,41.87
2018-06-23T09:33:02.231Z,42.34
2018-06-23T09:35:30.616Z,43.07
2018-06-23T09:37:59.019Z,42.41
2018-06-23T09:40:27.390Z,42.56
2018-06-23T09:42:55.799Z,44.27
2018-06-23T09:45:24.190Z,43.34
2018-06-23T09:47:52.583Z,44.54
2018-06-23T09:50:20.963Z,44.30
2018-06-23T09:52:49.357Z,43.99
2018-06-23T09:55:17.734Z,44.67
2018-06-23T09:57:46.130Z,43.58
2018-06-23T10:00:17.277Z,44.79
2018-06-23T10:02:47.423Z,44.94
2018-06-23T10:05:15.794Z,44.23
2018-06-23T10:07:44.191Z,43.31
2018-06-23T10:10:12.590Z,43.19
2018-06-23T10:12:40.977Z,43.00
2018-06-23T10:15:09.366Z,43.40
2018-06-23T10:17:37.734Z,43.59
2018-06-23T10:20:06.142Z,44.30
2018-06-23T10:22:34.522Z,43.84
2018-06-23T10:25:02.922Z,43.15
2018-06-23T10:27:31.303Z,42.82
2018-06-23T10:29:59.694Z,42.63
2018-06-23T10:32:28.070Z,43.74
2018-06-23T10:34:56.469Z,45.01
2018-06-23T10:37:24.858Z,43.58
2018-06-23T10:39:53.249Z,43.96
2018-06-23T10:42:21.629Z,44.46
2018-06-23T10:44:50.035Z,44.68
2018-06-23T10:47:18.402Z,43.79
2018-06-23T10:49:46.805Z,42.11
2018-06-23T10:52:15.191Z,40.58
2018-06-23T10:54:43.587Z,41.38
2018-06-23T10:57:11.964Z,41.60
2018-06-23T10:59:40.404Z,42.39
2018-06-23T11:02:09.006Z,42.86
2018-06-23T11:04:37.435Z,43.31
2018-06-23T11:07:05.994Z,43.07
2018-06-23T11:09:34.582Z,42.11
2018-06-23T11:12:02.950Z,40.90
2018-06-23T11:14:31.373Z,41.24
2018-06-23T11:16:59.754Z,41.29
2018-06-23T11:19:28.829Z,41.51
2018-06-23T11:21:57.202Z,40.47
2018-06-23T11:24:25.749Z,40.69
2018-06-23T11:26:54.097Z,41.06
2018-06-23T11:29:22.506Z,42.05
2018-06-23T11:31:50.886Z,41.40
2018-06-23T11:34:19.294Z,41.87
2018-06-23T11:36:47.675Z,41.05
2018-06-23T11:39:16.069Z,41.13
2018-06-23T11:41:44.470Z,40.55
2018-06-23T11:44:12.863Z,40.32
2018-06-23T11:46:41.392Z,41.68
2018-06-23T11:49:09.809Z,41.84
2018-06-23T11:51:38.226Z,42.76
2018-06-23T11:54:06.605Z,43.86
2018-06-23T11:56:35.019Z,42.42
2018-06-23T11:59:03.390Z,43.13
2018-06-23T12:01:32.092Z,42.17
2018-06-23T12:04:00.482Z,41.15
2018-06-23T12:06:28.879Z,41.42
2018-06-23T12:08:57.249Z,41.75
2018-06-23T12:11:25.666Z,42.41
2018-06-23T12:13:54.043Z,42.21
2018-06-23T12:16:22.434Z,42.09
2018-06-23T12:18:50.801Z,42.31
2018-06-23T12:21:19.217Z,42.73
2018-06-23T12:23:47.596Z,43.39
2018-06-23T12:26:16.015Z,43.77
2018-06-23T12:28:44.378Z,42.56
2018-06-23T12:31:12.790Z,40.67
2018-06-23T12:33:41.158Z,39.81
2018-06-23T12:36:09.562Z,40.21
2018-06-23T12:38:37.942Z,41.22
2018-06-23T12:41:06.357Z,41.08
2018-06-23T12:43:34.730Z,40.31
2018-06-23T12:46:03.131Z,40.89
2018-06-23T12:48:31.500Z,40.92
2018-06-23T12:50:59.923Z,41.16
2018-06-23T12:53:28.306Z,40.03
2018-06-23T12:55:56.698Z,40.83
2018-06-23T12:58:25.098Z,41.87
2018-06-23T13:00:53.510Z,42.44
2018-06-23T13:03:21.937Z,41.82
2018-06-23T13:05:50.313Z,42.69
2018-06-23T13:08:18.702Z,42.55
2018-06-23T13:10:47.096Z,42.33
2018-06-23T13:13:15.579Z,41.29
2018-06-23T13:15:43.950Z,41.48
2018-06-23T13:18:12.338Z,42.66
2018-06-23T13:20:41.220Z,42.96
2018-06-23T13:23:09.731Z,44.45
2018-06-23T13:25:38.190Z,43.42
2018-06-23T13:28:06.597Z,43.45
2018-06-23T13:30:35.034Z,44.12
2018-06-23T13:33:03.457Z,44.00
2018-06-23T13:35:31.846Z,44.69
2018-06-23T13:38:00.243Z,44.22
2018-06-23T13:40:28.632Z,43.69
2018-06-23T13:42:57.043Z,43.27
2018-06-23T13:45:25.422Z,44.26
2018-06-23T13:47:53.931Z,42.79
2018-06-23T13:50:22.306Z,43.85
2018-06-23T13:52:50.755Z,43.14
2018-06-23T13:55:19.147Z,44.19
2018-06-23T13:57:47.551Z,43.72
2018-06-23T14:00:15.922Z,44.68
2018-06-23T14:02:44.317Z,44.31
2018-06-23T14:05:12.686Z,43.45
2018-06-23T14:07:41.085Z,43.74
2018-06-23T14:10:09.502Z,44.23
2018-06-23T14:12:37.897Z,43.59
2018-06-23T14:15:06.595Z,44.13
2018-06-23T14:17:34.958Z,45.05
2018-06-23T14:20:03.383Z,45.60
2018-06-23T14:22:31.760Z,44.89
2018-06-23T14:25:00.159Z,45.48
2018-06-23T14:27:28.549Z,45.99
2018-06-23T14:29:56.942Z,44.75
2018-06-23T14:32:25.321Z,45.73
2018-06-23T14:34:53.723Z,46.05
2018-06-23T14:37:22.102Z,45.33
2018-06-23T14:39:50.502Z,45.51
2018-06-23T14:42:18.874Z,45.52
2018-06-23T14:44:47.270Z,44.32
2018-06-23T14:47:15.655Z,44.71
2018-06-23T14:49:44.055Z,44.64
2018-06-23T14:52:12.431Z,44.95
2018-06-23T14:54:40.825Z,44.08
2018-06-23T14:57:09.231Z,43.62
2018-06-23T14:59:37.694Z,44.01
2018-06-23T15:02:06.022Z,44.48
2018-06-23T15:04:34.417Z,43.43
2018-06-23T15:07:02.786Z,43.53
2018-06-23T15:09:47.490Z,43.78
2018-06-23T15:12:27.293Z,44.07
2018-06-23T15:14:55.686Z,43.80
2018-06-23T15:17:24.071Z,44.60
2018-06-23T15:19:52.470Z,43.87
2018-06-23T15:22:20.855Z,43.18
2018-06-23T15:24:49.258Z,42.33
2018-06-23T15:27:17.670Z,43.63
2018-06-23T15:29:46.071Z,42.50
2018-06-23T15:32:14.455Z,43.31
2018-06-23T15:34:42.867Z,42.95
2018-06-23T15:37:11.245Z,43.83
2018-06-23T15:39:39.642Z,43.74
2018-06-23T15:42:08.030Z,43.51
2018-06-23T15:44:36.435Z,42.70
2018-06-23T15:47:05.063Z,43.47
2018-06-23T15:49:33.455Z,43.61
2018-06-23T15:52:01.827Z,43.32
2018-06-23T15:54:30.243Z,42.96
2018-06-23T15:56:58.614Z,43.14
2018-06-23T15:59:26.981Z,42.39
2018-06-23T16:01:55.370Z,43.71
2018-06-23T16:04:23.742Z,42.63
2018-06-23T16:06:52.133Z,43.36
2018-06-23T16:09:20.536Z,44.00
2018-06-23T16:11:48.978Z,44.54
2018-06-23T16:14:17.362Z,44.45
2018-06-23T16:16:45.767Z,44.70
2018-06-23T16:19:14.137Z,45.05
2018-06-23T16:21:42.530Z,45.43
2018-06-23T16:24:10.915Z,45.60
2018-06-23T16:26:39.323Z,45.01
2018-06-23T16:29:07.702Z,45.68
2018-06-23T16:31:36.694Z,46.07
2018-06-23T16:34:05.096Z,45.56
2018-06-23T16:36:33.499Z,45.83
2018-06-23T16:39:01.873Z,45.74
2018-06-23T16:41:30.279Z,46.73
2018-06-23T16:43:58.659Z,47.05
2018-06-23T16:46:27.059Z,47.09
2018-06-23T16:48:55.518Z,47.59
2018-06-23T16:51:23.914Z,47.51
2018-06-23T16:53:52.306Z,47.67
2018-06-23T16:56:20.697Z,48.04
2018-06-23T16:58:49.078Z,49.23
2018-06-23T17:01:17.559Z,49.09
2018-06-23T17:03:46.010Z,49.79
2018-06-23T17:06:14.364Z,51.82
2018-06-23T17:08:42.746Z,53.03
2018-06-23T17:11:11.344Z,53.80
2018-06-23T17:13:39.804Z,53.43
2018-06-23T17:16:08.226Z,54.74
2018-06-23T17:18:36.602Z,54.13
2018-06-23T17:21:04.991Z,55.30
2018-06-23T17:23:33.394Z,54.61
2018-06-23T17:26:01.775Z,54.76
2018-06-23T17:28:30.180Z,55.01
2018-06-23T17:30:58.560Z,56.07
2018-06-23T17:33:26.953Z,55.38
2018-06-23T17:35:55.326Z,55.05
2018-06-23T17:38:23.753Z,55.55
2018-06-23T17:40:52.145Z,55.64
2018-06-23T17:43:20.650Z,55.58
2018-06-23T17:45:49.046Z,55.04
2018-06-23T17:48:17.496Z,54.64
2018-06-23T17:50:45.966Z,55.86
2018-06-23T17:53:14.374Z,55.49
2018-06-23T17:55:42.760Z,55.13
2018-06-23T17:58:11.161Z,54.79
2018-06-23T18:00:39.539Z,55.22
2018-06-23T18:03:07.947Z,54.69
2018-06-23T18:05:36.335Z,55.24
2018-06-23T18:08:04.757Z,55.24
2018-06-23T18:10:33.159Z,54.91
2018-06-23T18:13:01.556Z,55.54
2018-06-23T18:15:29.934Z,55.56
2018-06-23T18:17:58.330Z,55.13
2018-06-23T18:20:26.700Z,55.55
2018-06-23T18:22:55.120Z,55.16
2018-06-23T18:25:23.522Z,55.32
2018-06-23T18:27:51.923Z,55.59
2018-06-23T18:30:20.290Z,56.12
2018-06-23T18:32:48.698Z,56.46
2018-06-23T18:35:17.066Z,56.45
2018-06-23T18:37:45.443Z,56.74
2018-06-23T18:40:13.842Z,57.54
2018-06-23T18:42:42.214Z,57.38
2018-06-23T18:45:10.619Z,58.33
2018-06-23T18:47:38.986Z,58.27
2018-06-23T18:50:07.377Z,59.42
2018-06-23T18:52:35.767Z,59.00
2018-06-23T18:55:04.219Z,60.13
2018-06-23T18:57:32.598Z,60.15
2018-06-23T19:00:01.015Z,60.15
2018-06-23T19:02:29.385Z,61.06
2018-06-23T19:04:57.799Z,60.37
2018-06-23T19:07:26.194Z,61.01
2018-06-23T19:09:54.618Z,61.54
2018-06-23T19:12:23.005Z,60.95
2018-06-23T19:14:51.405Z,61.50
2018-06-23T19:17:19.799Z,61.07
2018-06-23T19:19:48.197Z,61.84
2018-06-23T19:22:16.579Z,61.85
2018-06-23T19:24:44.991Z,61.59
2018-06-23T19:27:13.370Z,61.52
2018-06-23T19:29:41.786Z,62.45
2018-06-23T19:32:10.163Z,62.22
2018-06-23T19:34:38.574Z,62.00
2018-06-23T19:37:06.958Z,62.35
2018-06-23T19:39:35.395Z,63.00
2018-06-23T19:42:03.785Z,62.96
2018-06-23T19:44:32.186Z,63.05
2018-06-23T19:47:00.631Z,63.62
2018-06-23T19:49:29.005Z,63.16
2018-06-23T19:51:57.382Z,63.21
2018-06-23T19:54:26.227Z,63.26
2018-06-23T19:56:54.627Z,63.60
2018-06-23T19:59:22.993Z,64.37
2018-06-23T20:01:51.410Z,64.11
2018-06-23T20:04:19.800Z,65.21
2018-06-23T20:06:48.200Z,64.51
2018-06-23T20:09:16.579Z,64.94
2018-06-23T20:11:45.008Z,65.23
2018-06-23T20:14:13.382Z,65.40
2018-06-23T20:16:41.793Z,65.67
2018-06-23T20:19:10.181Z,66.31
2018-06-23T20:21:38.587Z,66.03
2018-06-23T20:24:06.963Z,66.55
2018-06-23T20:26:35.370Z,67.11
2018-06-23T20:29:03.757Z,67.01
2018-06-23T20:31:32.201Z,68.06
2018-06-23T20:34:00.587Z,67.61
2018-06-23T20:36:28.985Z,68.63
2018-06-23T20:38:57.366Z,68.63
2018-06-23T20:41:25.794Z,68.51
2018-06-23T20:43:54.172Z,68.68
2018-06-23T20:46:22.574Z,69.08
2018-06-23T20:48:50.941Z,69.15
2018-06-23T20:51:19.342Z,69.96
2018-06-23T20:53:47.728Z,69.69
2018-06-23T20:56:16.138Z,70.05
2018-06-23T20:58:44.522Z,70.78
2018-06-23T21:01:12.931Z,70.46
2018-06-23T21:03:41.305Z,70.80
2018-06-23T21:06:09.734Z,70.75
2018-06-23T21:08:38.146Z,71.46
2018-06-23T21:11:06.803Z,71.14
2018-06-23T21:13:35.403Z,71.69
2018-06-23T21:16:03.786Z,71.35
2018-06-23T21:18:33.134Z,71.25
2018-06-23T21:21:01.598Z,71.58
2018-06-23T21:23:30.006Z,72.57
2018-06-23T21:25:58.399Z,72.50
2018-06-23T21:28:28.641Z,72.89
2018-06-23T21:30:57.068Z,73.22
2018-06-23T21:33:25.458Z,73.29
2018-06-23T21:35:53.838Z,73.45
2018-06-23T21:38:22.247Z,73.14
2018-06-23T21:40:50.671Z,73.80
2018-06-23T21:43:19.144Z,73.69
2018-06-23T21:45:47.521Z,73.89
2018-06-23T21:48:29.062Z,73.77
2018-06-23T21:50:57.447Z,74.34
2018-06-23T21:53:25.851Z,73.80
2018-06-23T21:55:54.242Z,74.36
2018-06-23T21:58:22.726Z,74.26
2018-06-23T22:00:52.490Z,74.44
2018-06-23T22:03:20.894Z,74.42
2018-06-23T22:05:49.265Z,74.19
2018-06-23T22:08:17.663Z,74.69
2018-06-23T22:10:46.057Z,74.06
2018-06-23T22:13:14.462Z,74.73
2018-06-23T22:15:42.839Z,74.57
2018-06-23T22:18:13.280Z,74.62
2018-06-23T22:20:42.817Z,74.80
2018-06-23T22:23:11.295Z,75.31
2018-06-23T22:25:39.681Z,75.63
2018-06-23T22:28:08.087Z,75.82
2018-06-23T22:30:36.503Z,75.18
2018-06-23T22:33:04.999Z,75.81
2018-06-23T22:35:33.378Z,76.33
2018-06-23T22:38:01.754Z,76.33
2018-06-23T22:40:30.164Z,76.38
2018-06-23T22:42:58.548Z,76.83
2018-06-23T22:45:26.946Z,76.84
2018-06-23T22:47:55.343Z,77.20
2018-06-23T22:50:23.750Z,77.10
2018-06-23T22:52:52.130Z,76.64
2018-06-23T22:55:20.529Z,77.04
2018-06-23T22:57:49.867Z,77.09
2018-06-23T23:00:34.879Z,77.83
2018-06-23T23:03:03.262Z,77.58
2018-06-23T23:05:31.670Z,78.19
2018-06-23T23:08:00.044Z,77.28
2018-06-23T23:10:28.462Z,77.75
2018-06-23T23:12:57.064Z,77.84
2018-06-23T23:15:25.402Z,77.39
2018-06-23T23:17:53.786Z,77.90
2018-06-23T23:20:22.187Z,77.89
2018-06-23T23:22:50.561Z,78.02
2018-06-23T23:25:18.962Z,77.56
2018-06-23T23:27:47.349Z,76.93
2018-06-23T23:30:24.579Z,78.12
2018-06-23T23:32:52.961Z,77.37
2018-06-23T23:35:21.359Z,77.16
2018-06-23T23:37:49.734Z,77.66
2018-06-23T23:40:18.234Z,77.22
2018-06-23T23:42:46.625Z,77.37
2018-06-23T23:45:15.021Z,76.88
2018-06-23T23:47:43.410Z,77.13
2018-06-23T23:50:11.847Z,77.37
2018-06-23T23:52:40.227Z,77.20
2018-06-23T23:55:08.677Z,76.64
2018-06-23T23:57:37.077Z,77.42
